sensor_id;sensor_type;location;lat;lon;timestamp;P1;durP1;ratioP1;P2;durP2;ratioP2
51836;SDS011;38941;53.254;6.600;2024-03-23T00:52:58;24.63;;;3.92;;
51836;SDS011;38941;53.254;6.600;2024-03-23T00:55:00;26.33;;;3.83;;
51836;SDS011;38941;53.254;6.600;2024-03-23T00:57:00;20.92;;;3.88;;
51836;SDS011;38941;53.254;6.600;2024-03-23T00:59:01;24.02;;;4.18;;
51836;SDS011;38941;53.254;6.600;2024-03-23T01:01:02;22.40;;;4.95;;
51836;SDS011;38941;53.254;6.600;2024-03-23T01:03:04;21.77;;;3.53;;
51836;SDS011;38941;53.254;6.600;2024-03-23T01:05:04;20.65;;;3.95;;
51836;SDS011;38941;53.254;6.600;2024-03-23T01:07:05;25.92;;;4.55;;
51836;SDS011;38941;53.254;6.600;2024-03-23T01:09:06;22.98;;;4.57;;
51836;SDS011;38941;53.254;6.600;2024-03-23T01:11:10;22.48;;;4.32;;
51836;SDS011;38941;53.254;6.600;2024-03-23T01:13:12;28.40;;;4.18;;
51836;SDS011;38941;53.254;6.600;2024-03-23T01:15:15;22.65;;;4.90;;
51836;SDS011;38941;53.254;6.600;2024-03-23T01:17:21;17.35;;;3.55;;
51836;SDS011;38941;53.254;6.600;2024-03-23T01:19:22;22.88;;;3.85;;
51836;SDS011;38941;53.254;6.600;2024-03-23T01:21:24;15.80;;;3.42;;
51836;SDS011;38941;53.254;6.600;2024-03-23T01:23:24;30.42;;;5.53;;
51836;SDS011;38941;53.254;6.600;2024-03-23T01:25:26;16.02;;;3.67;;
51836;SDS011;38941;53.254;6.600;2024-03-23T01:27:29;22.75;;;3.67;;
51836;SDS011;38941;53.254;6.600;2024-03-23T01:29:30;22.17;;;4.13;;
51836;SDS011;38941;53.254;6.600;2024-03-23T01:31:31;20.38;;;3.42;;
51836;SDS011;38941;53.254;6.600;2024-03-23T01:33:32;21.42;;;4.75;;
51836;SDS011;38941;53.254;6.600;2024-03-23T01:35:33;29.73;;;3.85;;
51836;SDS011;38941;53.254;6.600;2024-03-23T01:37:34;18.50;;;4.15;;
51836;SDS011;38941;53.254;6.600;2024-03-23T01:39:36;20.52;;;3.92;;
51836;SDS011;38941;53.254;6.600;2024-03-23T01:41:36;19.42;;;3.92;;
51836;SDS011;38941;53.254;6.600;2024-03-23T01:43:39;20.33;;;3.67;;
51836;SDS011;38941;53.254;6.600;2024-03-23T01:45:41;22.35;;;4.13;;
51836;SDS011;38941;53.254;6.600;2024-03-23T01:50:13;17.52;;;5.30;;
51836;SDS011;38941;53.254;6.600;2024-03-23T01:52:14;23.33;;;4.43;;
51836;SDS011;38941;53.254;6.600;2024-03-23T01:54:15;32.15;;;5.95;;
51836;SDS011;38941;53.254;6.600;2024-03-23T01:56:17;19.50;;;3.42;;
51836;SDS011;38941;53.254;6.600;2024-03-23T01:58:18;17.70;;;4.38;;
51836;SDS011;38941;53.254;6.600;2024-03-23T02:00:19;20.15;;;3.45;;
51836;SDS011;38941;53.254;6.600;2024-03-23T02:02:19;27.67;;;4.38;;
51836;SDS011;38941;53.254;6.600;2024-03-23T02:04:20;20.13;;;4.28;;
51836;SDS011;38941;53.254;6.600;2024-03-23T02:06:22;13.30;;;3.47;;
51836;SDS011;38941;53.254;6.600;2024-03-23T02:08:25;25.33;;;4.55;;
51836;SDS011;38941;53.254;6.600;2024-03-23T02:10:26;20.77;;;3.70;;
51836;SDS011;38941;53.254;6.600;2024-03-23T02:12:27;15.88;;;3.53;;
51836;SDS011;38941;53.254;6.600;2024-03-23T02:14:28;28.90;;;5.35;;
51836;SDS011;38941;53.254;6.600;2024-03-23T02:16:29;30.45;;;5.13;;
51836;SDS011;38941;53.254;6.600;2024-03-23T02:18:32;21.10;;;2.75;;
51836;SDS011;38941;53.254;6.600;2024-03-23T02:20:34;19.42;;;3.35;;
51836;SDS011;38941;53.254;6.600;2024-03-23T02:22:35;18.55;;;2.95;;
51836;SDS011;38941;53.254;6.600;2024-03-23T02:24:38;19.80;;;4.38;;
51836;SDS011;38941;53.254;6.600;2024-03-23T02:26:39;13.65;;;2.75;;
51836;SDS011;38941;53.254;6.600;2024-03-23T02:28:42;21.25;;;3.55;;
51836;SDS011;38941;53.254;6.600;2024-03-23T02:30:43;18.75;;;3.72;;
51836;SDS011;38941;53.254;6.600;2024-03-23T02:32:44;15.20;;;3.05;;
51836;SDS011;38941;53.254;6.600;2024-03-23T02:34:45;14.10;;;2.58;;
51836;SDS011;38941;53.254;6.600;2024-03-23T02:36:46;26.15;;;3.97;;
51836;SDS011;38941;53.254;6.600;2024-03-23T02:38:47;15.75;;;3.88;;
51836;SDS011;38941;53.254;6.600;2024-03-23T02:40:48;9.52;;;2.78;;
51836;SDS011;38941;53.254;6.600;2024-03-23T02:42:49;17.48;;;3.30;;
51836;SDS011;38941;53.254;6.600;2024-03-23T02:44:51;21.05;;;3.42;;
51836;SDS011;38941;53.254;6.600;2024-03-23T02:46:52;18.45;;;3.35;;
51836;SDS011;38941;53.254;6.600;2024-03-23T02:48:53;17.60;;;3.17;;
51836;SDS011;38941;53.254;6.600;2024-03-23T02:50:54;13.25;;;3.55;;
51836;SDS011;38941;53.254;6.600;2024-03-23T02:52:55;16.52;;;3.15;;
51836;SDS011;38941;53.254;6.600;2024-03-23T02:54:56;15.50;;;2.75;;
51836;SDS011;38941;53.254;6.600;2024-03-23T02:56:58;12.73;;;3.03;;
51836;SDS011;38941;53.254;6.600;2024-03-23T02:58:59;19.58;;;4.50;;
51836;SDS011;38941;53.254;6.600;2024-03-23T03:01:00;15.25;;;3.30;;
51836;SDS011;38941;53.254;6.600;2024-03-23T03:03:01;21.75;;;3.38;;
51836;SDS011;38941;53.254;6.600;2024-03-23T03:05:04;17.75;;;2.50;;
51836;SDS011;38941;53.254;6.600;2024-03-23T03:07:05;16.40;;;3.35;;
51836;SDS011;38941;53.254;6.600;2024-03-23T03:09:06;17.50;;;3.15;;
51836;SDS011;38941;53.254;6.600;2024-03-23T03:11:08;9.98;;;2.80;;
51836;SDS011;38941;53.254;6.600;2024-03-23T03:13:09;13.43;;;3.40;;
51836;SDS011;38941;53.254;6.600;2024-03-23T03:15:10;16.13;;;3.00;;
51836;SDS011;38941;53.254;6.600;2024-03-23T03:17:11;21.58;;;3.20;;
51836;SDS011;38941;53.254;6.600;2024-03-23T03:19:13;13.77;;;2.95;;
51836;SDS011;38941;53.254;6.600;2024-03-23T03:21:15;12.73;;;2.30;;
51836;SDS011;38941;53.254;6.600;2024-03-23T03:23:17;24.38;;;3.17;;
51836;SDS011;38941;53.254;6.600;2024-03-23T03:25:19;16.05;;;2.67;;
51836;SDS011;38941;53.254;6.600;2024-03-23T03:27:20;16.15;;;3.10;;
51836;SDS011;38941;53.254;6.600;2024-03-23T03:29:22;18.48;;;1.92;;
51836;SDS011;38941;53.254;6.600;2024-03-23T03:31:23;15.38;;;3.15;;
51836;SDS011;38941;53.254;6.600;2024-03-23T03:33:25;12.77;;;2.67;;
51836;SDS011;38941;53.254;6.600;2024-03-23T03:35:29;18.08;;;2.90;;
51836;SDS011;38941;53.254;6.600;2024-03-23T03:37:30;20.17;;;2.17;;
51836;SDS011;38941;53.254;6.600;2024-03-23T03:39:31;13.27;;;2.10;;
51836;SDS011;38941;53.254;6.600;2024-03-23T03:41:32;15.13;;;2.22;;
51836;SDS011;38941;53.254;6.600;2024-03-23T03:43:34;14.88;;;2.13;;
51836;SDS011;38941;53.254;6.600;2024-03-23T03:45:35;15.50;;;2.65;;
51836;SDS011;38941;53.254;6.600;2024-03-23T03:47:36;13.95;;;2.25;;
51836;SDS011;38941;53.254;6.600;2024-03-23T03:49:37;14.98;;;3.28;;
51836;SDS011;38941;53.254;6.600;2024-03-23T03:51:38;15.23;;;2.88;;
51836;SDS011;38941;53.254;6.600;2024-03-23T03:55:46;18.83;;;2.83;;
51836;SDS011;38941;53.254;6.600;2024-03-23T03:57:47;15.73;;;2.42;;
51836;SDS011;38941;53.254;6.600;2024-03-23T03:59:48;14.18;;;2.25;;
51836;SDS011;38941;53.254;6.600;2024-03-23T04:01:50;15.75;;;3.78;;
51836;SDS011;38941;53.254;6.600;2024-03-23T04:03:52;12.02;;;2.80;;
51836;SDS011;38941;53.254;6.600;2024-03-23T04:05:54;11.85;;;2.20;;
51836;SDS011;38941;53.254;6.600;2024-03-23T04:07:57;15.00;;;3.35;;
51836;SDS011;38941;53.254;6.600;2024-03-23T04:09:58;20.85;;;3.33;;
51836;SDS011;38941;53.254;6.600;2024-03-23T04:11:59;10.52;;;2.38;;
51836;SDS011;38941;53.254;6.600;2024-03-23T04:14:00;12.48;;;2.45;;
51836;SDS011;38941;53.254;6.600;2024-03-23T04:16:03;13.07;;;2.63;;
51836;SDS011;38941;53.254;6.600;2024-03-23T04:18:06;22.63;;;3.70;;
51836;SDS011;38941;53.254;6.600;2024-03-23T04:20:07;15.93;;;2.75;;
51836;SDS011;38941;53.254;6.600;2024-03-23T04:22:11;11.52;;;2.08;;
51836;SDS011;38941;53.254;6.600;2024-03-23T04:24:13;14.98;;;2.03;;
51836;SDS011;38941;53.254;6.600;2024-03-23T04:26:16;13.95;;;3.08;;
51836;SDS011;38941;53.254;6.600;2024-03-23T04:28:19;9.27;;;2.75;;
51836;SDS011;38941;53.254;6.600;2024-03-23T04:30:21;16.33;;;2.60;;
51836;SDS011;38941;53.254;6.600;2024-03-23T04:32:26;22.92;;;4.47;;
51836;SDS011;38941;53.254;6.600;2024-03-23T04:34:27;20.05;;;2.90;;
51836;SDS011;38941;53.254;6.600;2024-03-23T04:36:28;14.10;;;1.95;;
51836;SDS011;38941;53.254;6.600;2024-03-23T04:38:29;18.77;;;2.97;;
51836;SDS011;38941;53.254;6.600;2024-03-23T04:40:31;14.65;;;2.65;;
51836;SDS011;38941;53.254;6.600;2024-03-23T04:42:33;15.80;;;2.40;;
51836;SDS011;38941;53.254;6.600;2024-03-23T04:44:34;16.15;;;2.75;;
51836;SDS011;38941;53.254;6.600;2024-03-23T04:46:35;13.43;;;1.80;;
51836;SDS011;38941;53.254;6.600;2024-03-23T04:48:37;14.25;;;3.05;;
51836;SDS011;38941;53.254;6.600;2024-03-23T04:50:38;14.38;;;2.53;;
51836;SDS011;38941;53.254;6.600;2024-03-23T04:52:40;12.65;;;2.47;;
51836;SDS011;38941;53.254;6.600;2024-03-23T04:54:41;16.60;;;2.60;;
51836;SDS011;38941;53.254;6.600;2024-03-23T04:56:43;16.45;;;2.47;;
51836;SDS011;38941;53.254;6.600;2024-03-23T04:58:45;18.45;;;3.55;;
51836;SDS011;38941;53.254;6.600;2024-03-23T05:00:46;19.48;;;2.92;;
51836;SDS011;38941;53.254;6.600;2024-03-23T05:02:47;7.85;;;2.15;;
51836;SDS011;38941;53.254;6.600;2024-03-23T05:04:49;15.13;;;3.17;;
51836;SDS011;38941;53.254;6.600;2024-03-23T05:06:50;14.32;;;2.55;;
51836;SDS011;38941;53.254;6.600;2024-03-23T05:08:51;9.85;;;1.83;;
51836;SDS011;38941;53.254;6.600;2024-03-23T05:10:53;7.80;;;2.17;;
51836;SDS011;38941;53.254;6.600;2024-03-23T05:12:55;17.40;;;2.95;;
51836;SDS011;38941;53.254;6.600;2024-03-23T05:14:56;15.52;;;2.33;;
51836;SDS011;38941;53.254;6.600;2024-03-23T05:16:58;13.73;;;1.92;;
51836;SDS011;38941;53.254;6.600;2024-03-23T05:18:59;12.25;;;2.20;;
51836;SDS011;38941;53.254;6.600;2024-03-23T05:21:02;12.93;;;2.70;;
51836;SDS011;38941;53.254;6.600;2024-03-23T05:23:03;10.85;;;2.78;;
51836;SDS011;38941;53.254;6.600;2024-03-23T05:25:05;12.50;;;2.67;;
51836;SDS011;38941;53.254;6.600;2024-03-23T05:27:07;21.77;;;2.58;;
51836;SDS011;38941;53.254;6.600;2024-03-23T05:29:09;17.45;;;2.88;;
51836;SDS011;38941;53.254;6.600;2024-03-23T05:31:22;16.50;;;2.33;;
51836;SDS011;38941;53.254;6.600;2024-03-23T05:33:23;14.27;;;2.38;;
51836;SDS011;38941;53.254;6.600;2024-03-23T05:35:25;22.10;;;2.53;;
51836;SDS011;38941;53.254;6.600;2024-03-23T05:37:27;10.20;;;2.85;;
51836;SDS011;38941;53.254;6.600;2024-03-23T05:39:31;10.43;;;2.33;;
51836;SDS011;38941;53.254;6.600;2024-03-23T05:41:33;14.50;;;2.33;;
51836;SDS011;38941;53.254;6.600;2024-03-23T05:43:36;12.00;;;3.10;;
51836;SDS011;38941;53.254;6.600;2024-03-23T05:45:37;13.43;;;2.47;;
51836;SDS011;38941;53.254;6.600;2024-03-23T05:47:40;15.70;;;2.50;;
51836;SDS011;38941;53.254;6.600;2024-03-23T05:49:42;13.27;;;2.08;;
51836;SDS011;38941;53.254;6.600;2024-03-23T05:51:44;10.00;;;2.75;;
51836;SDS011;38941;53.254;6.600;2024-03-23T05:53:46;14.95;;;1.50;;
51836;SDS011;38941;53.254;6.600;2024-03-23T05:55:49;16.35;;;3.17;;
51836;SDS011;38941;53.254;6.600;2024-03-23T05:57:50;10.25;;;2.72;;
51836;SDS011;38941;53.254;6.600;2024-03-23T05:59:51;14.27;;;1.85;;
51836;SDS011;38941;53.254;6.600;2024-03-23T06:01:52;14.88;;;2.20;;
51836;SDS011;38941;53.254;6.600;2024-03-23T06:03:53;13.20;;;2.05;;
51836;SDS011;38941;53.254;6.600;2024-03-23T06:05:56;12.13;;;1.70;;
51836;SDS011;38941;53.254;6.600;2024-03-23T06:08:00;11.63;;;1.98;;
51836;SDS011;38941;53.254;6.600;2024-03-23T06:10:01;14.68;;;2.15;;
51836;SDS011;38941;53.254;6.600;2024-03-23T06:12:02;15.30;;;2.88;;
51836;SDS011;38941;53.254;6.600;2024-03-23T06:14:04;15.95;;;2.72;;
51836;SDS011;38941;53.254;6.600;2024-03-23T06:16:05;14.70;;;2.75;;
51836;SDS011;38941;53.254;6.600;2024-03-23T06:18:07;12.38;;;1.30;;
51836;SDS011;38941;53.254;6.600;2024-03-23T06:20:09;16.75;;;2.75;;
51836;SDS011;38941;53.254;6.600;2024-03-23T06:22:10;15.40;;;2.53;;
51836;SDS011;38941;53.254;6.600;2024-03-23T06:24:13;11.60;;;1.75;;
51836;SDS011;38941;53.254;6.600;2024-03-23T06:26:15;11.20;;;2.40;;
51836;SDS011;38941;53.254;6.600;2024-03-23T06:28:16;8.07;;;1.45;;
51836;SDS011;38941;53.254;6.600;2024-03-23T06:30:18;10.77;;;2.28;;
51836;SDS011;38941;53.254;6.600;2024-03-23T06:32:20;8.10;;;1.05;;
51836;SDS011;38941;53.254;6.600;2024-03-23T06:34:21;7.78;;;1.58;;
51836;SDS011;38941;53.254;6.600;2024-03-23T06:36:23;12.18;;;2.13;;
51836;SDS011;38941;53.254;6.600;2024-03-23T06:38:24;8.50;;;1.58;;
51836;SDS011;38941;53.254;6.600;2024-03-23T06:40:25;9.60;;;1.15;;
51836;SDS011;38941;53.254;6.600;2024-03-23T06:42:26;9.80;;;1.38;;
51836;SDS011;38941;53.254;6.600;2024-03-23T06:44:28;8.10;;;1.27;;
51836;SDS011;38941;53.254;6.600;2024-03-23T06:46:29;7.15;;;1.45;;
51836;SDS011;38941;53.254;6.600;2024-03-23T06:48:31;9.48;;;1.90;;
51836;SDS011;38941;53.254;6.600;2024-03-23T06:50:32;12.77;;;1.55;;
51836;SDS011;38941;53.254;6.600;2024-03-23T06:52:33;7.85;;;1.58;;
51836;SDS011;38941;53.254;6.600;2024-03-23T06:54:35;9.45;;;1.33;;
51836;SDS011;38941;53.254;6.600;2024-03-23T06:56:37;7.78;;;1.95;;
51836;SDS011;38941;53.254;6.600;2024-03-23T06:58:38;7.38;;;1.42;;
51836;SDS011;38941;53.254;6.600;2024-03-23T07:00:40;13.63;;;2.10;;
51836;SDS011;38941;53.254;6.600;2024-03-23T07:02:41;16.10;;;3.13;;
51836;SDS011;38941;53.254;6.600;2024-03-23T07:04:45;8.45;;;1.67;;
51836;SDS011;38941;53.254;6.600;2024-03-23T07:06:46;5.80;;;1.60;;
51836;SDS011;38941;53.254;6.600;2024-03-23T07:10:52;7.18;;;1.30;;
51836;SDS011;38941;53.254;6.600;2024-03-23T07:12:53;10.30;;;1.88;;
51836;SDS011;38941;53.254;6.600;2024-03-23T07:14:55;12.70;;;1.98;;
51836;SDS011;38941;53.254;6.600;2024-03-23T07:16:56;9.73;;;1.40;;
51836;SDS011;38941;53.254;6.600;2024-03-23T07:18:57;9.10;;;1.58;;
51836;SDS011;38941;53.254;6.600;2024-03-23T07:20:58;12.30;;;1.55;;
51836;SDS011;38941;53.254;6.600;2024-03-23T07:23:00;11.75;;;1.40;;
51836;SDS011;38941;53.254;6.600;2024-03-23T07:25:01;11.73;;;1.60;;
51836;SDS011;38941;53.254;6.600;2024-03-23T07:27:03;10.13;;;1.58;;
51836;SDS011;38941;53.254;6.600;2024-03-23T07:29:05;6.80;;;1.40;;
51836;SDS011;38941;53.254;6.600;2024-03-23T07:31:07;3.33;;;1.13;;
51836;SDS011;38941;53.254;6.600;2024-03-23T07:33:12;7.80;;;1.52;;
51836;SDS011;38941;53.254;6.600;2024-03-23T07:35:13;10.93;;;1.88;;
51836;SDS011;38941;53.254;6.600;2024-03-23T07:37:14;8.75;;;1.40;;
51836;SDS011;38941;53.254;6.600;2024-03-23T07:39:15;8.63;;;1.55;;
51836;SDS011;38941;53.254;6.600;2024-03-23T07:41:17;12.07;;;1.17;;
51836;SDS011;38941;53.254;6.600;2024-03-23T07:43:19;7.65;;;1.83;;
51836;SDS011;38941;53.254;6.600;2024-03-23T07:45:20;11.85;;;2.35;;
51836;SDS011;38941;53.254;6.600;2024-03-23T07:47:22;11.95;;;1.25;;
51836;SDS011;38941;53.254;6.600;2024-03-23T07:49:24;8.00;;;1.30;;
51836;SDS011;38941;53.254;6.600;2024-03-23T07:51:25;3.78;;;1.10;;
51836;SDS011;38941;53.254;6.600;2024-03-23T07:53:26;8.57;;;1.45;;
51836;SDS011;38941;53.254;6.600;2024-03-23T07:55:29;7.13;;;1.85;;
51836;SDS011;38941;53.254;6.600;2024-03-23T07:57:30;6.18;;;1.38;;
51836;SDS011;38941;53.254;6.600;2024-03-23T07:59:31;8.38;;;1.88;;
51836;SDS011;38941;53.254;6.600;2024-03-23T08:01:34;7.28;;;1.58;;
51836;SDS011;38941;53.254;6.600;2024-03-23T08:03:35;6.93;;;1.17;;
51836;SDS011;38941;53.254;6.600;2024-03-23T08:05:37;4.60;;;1.10;;
51836;SDS011;38941;53.254;6.600;2024-03-23T08:07:38;5.00;;;0.98;;
51836;SDS011;38941;53.254;6.600;2024-03-23T08:09:39;7.22;;;1.10;;
51836;SDS011;38941;53.254;6.600;2024-03-23T08:11:41;9.93;;;1.35;;
51836;SDS011;38941;53.254;6.600;2024-03-23T08:13:44;5.75;;;1.15;;
51836;SDS011;38941;53.254;6.600;2024-03-23T08:15:46;9.15;;;1.92;;
51836;SDS011;38941;53.254;6.600;2024-03-23T08:17:47;6.47;;;1.30;;
51836;SDS011;38941;53.254;6.600;2024-03-23T08:19:48;7.38;;;1.25;;
51836;SDS011;38941;53.254;6.600;2024-03-23T08:21:49;7.70;;;1.20;;
51836;SDS011;38941;53.254;6.600;2024-03-23T08:23:51;3.63;;;1.35;;
51836;SDS011;38941;53.254;6.600;2024-03-23T08:25:57;7.00;;;1.00;;
51836;SDS011;38941;53.254;6.600;2024-03-23T08:28:00;1.20;;;0.82;;
51836;SDS011;38941;53.254;6.600;2024-03-23T08:30:01;9.00;;;1.98;;
51836;SDS011;38941;53.254;6.600;2024-03-23T08:32:02;7.30;;;1.10;;
51836;SDS011;38941;53.254;6.600;2024-03-23T08:34:03;6.60;;;1.30;;
51836;SDS011;38941;53.254;6.600;2024-03-23T08:36:05;6.45;;;1.10;;
51836;SDS011;38941;53.254;6.600;2024-03-23T08:38:07;7.45;;;1.52;;
51836;SDS011;38941;53.254;6.600;2024-03-23T08:40:08;6.97;;;1.13;;
51836;SDS011;38941;53.254;6.600;2024-03-23T08:42:09;11.65;;;2.00;;
51836;SDS011;38941;53.254;6.600;2024-03-23T08:44:10;7.38;;;1.20;;
51836;SDS011;38941;53.254;6.600;2024-03-23T08:46:12;11.90;;;2.03;;
51836;SDS011;38941;53.254;6.600;2024-03-23T08:48:14;4.05;;;0.80;;
51836;SDS011;38941;53.254;6.600;2024-03-23T08:50:15;8.88;;;1.83;;
51836;SDS011;38941;53.254;6.600;2024-03-23T08:52:16;7.57;;;1.63;;
51836;SDS011;38941;53.254;6.600;2024-03-23T08:54:17;8.15;;;1.23;;
51836;SDS011;38941;53.254;6.600;2024-03-23T08:56:21;8.95;;;1.70;;
51836;SDS011;38941;53.254;6.600;2024-03-23T08:58:23;7.10;;;1.42;;
51836;SDS011;38941;53.254;6.600;2024-03-23T09:00:24;11.30;;;1.48;;
51836;SDS011;38941;53.254;6.600;2024-03-23T09:02:26;7.03;;;2.33;;
51836;SDS011;38941;53.254;6.600;2024-03-23T09:04:27;6.28;;;1.20;;
51836;SDS011;38941;53.254;6.600;2024-03-23T09:06:29;6.70;;;1.70;;
51836;SDS011;38941;53.254;6.600;2024-03-23T09:08:35;12.68;;;2.60;;
51836;SDS011;38941;53.254;6.600;2024-03-23T09:12:46;8.90;;;2.20;;
51836;SDS011;38941;53.254;6.600;2024-03-23T09:14:49;7.93;;;1.63;;
51836;SDS011;38941;53.254;6.600;2024-03-23T09:16:57;9.68;;;2.50;;
51836;SDS011;38941;53.254;6.600;2024-03-23T09:18:58;8.05;;;1.38;;
51836;SDS011;38941;53.254;6.600;2024-03-23T09:21:02;9.45;;;3.20;;
51836;SDS011;38941;53.254;6.600;2024-03-23T09:23:04;7.15;;;1.50;;
51836;SDS011;38941;53.254;6.600;2024-03-23T09:25:05;10.43;;;1.55;;
51836;SDS011;38941;53.254;6.600;2024-03-23T09:27:07;9.80;;;1.98;;
51836;SDS011;38941;53.254;6.600;2024-03-23T09:29:08;5.88;;;1.48;;
51836;SDS011;38941;53.254;6.600;2024-03-23T09:31:11;6.00;;;1.50;;
51836;SDS011;38941;53.254;6.600;2024-03-23T09:33:14;12.27;;;1.90;;
51836;SDS011;38941;53.254;6.600;2024-03-23T09:35:15;6.45;;;2.08;;
51836;SDS011;38941;53.254;6.600;2024-03-23T09:39:21;8.27;;;1.27;;
51836;SDS011;38941;53.254;6.600;2024-03-23T09:41:22;8.25;;;1.05;;
51836;SDS011;38941;53.254;6.600;2024-03-23T09:43:24;6.45;;;1.30;;
51836;SDS011;38941;53.254;6.600;2024-03-23T09:45:28;9.35;;;2.15;;
51836;SDS011;38941;53.254;6.600;2024-03-23T09:47:31;9.15;;;1.70;;
51836;SDS011;38941;53.254;6.600;2024-03-23T09:49:34;10.75;;;2.28;;
51836;SDS011;38941;53.254;6.600;2024-03-23T09:51:36;9.07;;;2.05;;
51836;SDS011;38941;53.254;6.600;2024-03-23T09:53:38;10.10;;;1.50;;
51836;SDS011;38941;53.254;6.600;2024-03-23T09:55:40;5.85;;;0.95;;
51836;SDS011;38941;53.254;6.600;2024-03-23T09:57:41;6.50;;;1.35;;
51836;SDS011;38941;53.254;6.600;2024-03-23T09:59:42;6.25;;;1.73;;
51836;SDS011;38941;53.254;6.600;2024-03-23T10:01:44;8.63;;;1.80;;
51836;SDS011;38941;53.254;6.600;2024-03-23T10:03:45;6.40;;;1.40;;
51836;SDS011;38941;53.254;6.600;2024-03-23T10:05:46;6.72;;;0.88;;
51836;SDS011;38941;53.254;6.600;2024-03-23T10:07:48;6.90;;;1.52;;
51836;SDS011;38941;53.254;6.600;2024-03-23T10:09:51;4.55;;;0.70;;
51836;SDS011;38941;53.254;6.600;2024-03-23T10:11:52;4.93;;;0.90;;
51836;SDS011;38941;53.254;6.600;2024-03-23T10:13:55;2.50;;;0.55;;
51836;SDS011;38941;53.254;6.600;2024-03-23T10:15:57;5.13;;;0.60;;
51836;SDS011;38941;53.254;6.600;2024-03-23T10:17:58;6.40;;;0.70;;
51836;SDS011;38941;53.254;6.600;2024-03-23T10:20:06;5.32;;;1.17;;
51836;SDS011;38941;53.254;6.600;2024-03-23T10:22:15;7.32;;;1.38;;
51836;SDS011;38941;53.254;6.600;2024-03-23T10:24:16;7.32;;;1.23;;
51836;SDS011;38941;53.254;6.600;2024-03-23T10:26:24;4.30;;;0.70;;
51836;SDS011;38941;53.254;6.600;2024-03-23T10:28:26;6.80;;;1.00;;
51836;SDS011;38941;53.254;6.600;2024-03-23T10:30:27;7.32;;;1.20;;
51836;SDS011;38941;53.254;6.600;2024-03-23T10:32:28;24.83;;;2.95;;
51836;SDS011;38941;53.254;6.600;2024-03-23T10:34:29;8.95;;;1.00;;
51836;SDS011;38941;53.254;6.600;2024-03-23T10:36:30;11.40;;;2.30;;
51836;SDS011;38941;53.254;6.600;2024-03-23T10:38:31;7.57;;;1.30;;
51836;SDS011;38941;53.254;6.600;2024-03-23T10:40:36;9.43;;;1.50;;
51836;SDS011;38941;53.254;6.600;2024-03-23T10:42:39;6.85;;;1.42;;
51836;SDS011;38941;53.254;6.600;2024-03-23T10:44:40;9.35;;;1.75;;
51836;SDS011;38941;53.254;6.600;2024-03-23T10:46:41;8.65;;;1.70;;
51836;SDS011;38941;53.254;6.600;2024-03-23T10:48:43;9.63;;;2.42;;
51836;SDS011;38941;53.254;6.600;2024-03-23T10:50:44;16.20;;;1.85;;
51836;SDS011;38941;53.254;6.600;2024-03-23T10:52:46;17.00;;;3.17;;
51836;SDS011;38941;53.254;6.600;2024-03-23T10:54:48;5.00;;;1.00;;
51836;SDS011;38941;53.254;6.600;2024-03-23T10:56:53;3.92;;;1.55;;
51836;SDS011;38941;53.254;6.600;2024-03-23T10:58:56;7.90;;;1.05;;
51836;SDS011;38941;53.254;6.600;2024-03-23T11:00:57;10.50;;;1.67;;
51836;SDS011;38941;53.254;6.600;2024-03-23T11:02:58;5.53;;;2.05;;
51836;SDS011;38941;53.254;6.600;2024-03-23T11:04:59;6.53;;;1.25;;
51836;SDS011;38941;53.254;6.600;2024-03-23T11:07:02;3.65;;;1.00;;
51836;SDS011;38941;53.254;6.600;2024-03-23T11:09:03;13.48;;;1.60;;
51836;SDS011;38941;53.254;6.600;2024-03-23T11:11:22;3.67;;;0.90;;
51836;SDS011;38941;53.254;6.600;2024-03-23T11:13:25;2.80;;;0.93;;
51836;SDS011;38941;53.254;6.600;2024-03-23T11:15:26;3.88;;;0.88;;
51836;SDS011;38941;53.254;6.600;2024-03-23T11:17:27;10.35;;;1.10;;
51836;SDS011;38941;53.254;6.600;2024-03-23T11:19:38;10.15;;;1.55;;
51836;SDS011;38941;53.254;6.600;2024-03-23T11:21:52;8.68;;;1.20;;
51836;SDS011;38941;53.254;6.600;2024-03-23T11:23:54;7.40;;;1.85;;
51836;SDS011;38941;53.254;6.600;2024-03-23T11:25:55;6.53;;;1.20;;
51836;SDS011;38941;53.254;6.600;2024-03-23T11:27:57;6.65;;;1.30;;
51836;SDS011;38941;53.254;6.600;2024-03-23T11:30:09;13.25;;;1.30;;
51836;SDS011;38941;53.254;6.600;2024-03-23T11:32:10;5.65;;;1.17;;
51836;SDS011;38941;53.254;6.600;2024-03-23T11:34:14;7.78;;;1.08;;
51836;SDS011;38941;53.254;6.600;2024-03-23T11:36:18;6.40;;;1.33;;
51836;SDS011;38941;53.254;6.600;2024-03-23T11:38:20;4.65;;;1.10;;
51836;SDS011;38941;53.254;6.600;2024-03-23T11:40:21;5.78;;;1.05;;
51836;SDS011;38941;53.254;6.600;2024-03-23T11:42:22;4.95;;;0.88;;
51836;SDS011;38941;53.254;6.600;2024-03-23T11:44:26;5.28;;;1.08;;
51836;SDS011;38941;53.254;6.600;2024-03-23T11:46:28;7.13;;;1.88;;
51836;SDS011;38941;53.254;6.600;2024-03-23T11:48:29;7.60;;;1.30;;
51836;SDS011;38941;53.254;6.600;2024-03-23T11:50:30;8.55;;;1.20;;
51836;SDS011;38941;53.254;6.600;2024-03-23T11:52:31;13.25;;;1.80;;
51836;SDS011;38941;53.254;6.600;2024-03-23T11:54:33;4.43;;;1.00;;
51836;SDS011;38941;53.254;6.600;2024-03-23T11:56:34;10.73;;;2.50;;
51836;SDS011;38941;53.254;6.600;2024-03-23T11:58:35;5.13;;;1.33;;
51836;SDS011;38941;53.254;6.600;2024-03-23T12:00:36;6.28;;;1.65;;
51836;SDS011;38941;53.254;6.600;2024-03-23T12:02:37;5.30;;;1.35;;
51836;SDS011;38941;53.254;6.600;2024-03-23T12:04:39;2.72;;;1.10;;
51836;SDS011;38941;53.254;6.600;2024-03-23T12:06:40;8.60;;;1.50;;
51836;SDS011;38941;53.254;6.600;2024-03-23T12:08:41;8.63;;;1.50;;
51836;SDS011;38941;53.254;6.600;2024-03-23T12:10:47;11.73;;;2.15;;
51836;SDS011;38941;53.254;6.600;2024-03-23T12:13:01;10.23;;;1.35;;
51836;SDS011;38941;53.254;6.600;2024-03-23T12:15:04;6.80;;;0.90;;
51836;SDS011;38941;53.254;6.600;2024-03-23T12:17:12;6.15;;;1.30;;
51836;SDS011;38941;53.254;6.600;2024-03-23T12:19:13;5.75;;;1.08;;
51836;SDS011;38941;53.254;6.600;2024-03-23T12:21:15;5.75;;;1.10;;
51836;SDS011;38941;53.254;6.600;2024-03-23T12:23:19;9.07;;;1.23;;
51836;SDS011;38941;53.254;6.600;2024-03-23T12:25:21;4.68;;;0.70;;
51836;SDS011;38941;53.254;6.600;2024-03-23T12:27:22;10.05;;;1.42;;
51836;SDS011;38941;53.254;6.600;2024-03-23T12:29:27;6.03;;;1.45;;
51836;SDS011;38941;53.254;6.600;2024-03-23T12:31:28;5.90;;;1.00;;
51836;SDS011;38941;53.254;6.600;2024-03-23T12:33:29;6.78;;;1.25;;
51836;SDS011;38941;53.254;6.600;2024-03-23T12:35:32;5.40;;;0.88;;
51836;SDS011;38941;53.254;6.600;2024-03-23T12:37:33;3.95;;;0.90;;
51836;SDS011;38941;53.254;6.600;2024-03-23T12:39:34;4.63;;;1.27;;
51836;SDS011;38941;53.254;6.600;2024-03-23T12:41:37;2.53;;;0.63;;
51836;SDS011;38941;53.254;6.600;2024-03-23T12:43:38;3.35;;;1.08;;
51836;SDS011;38941;53.254;6.600;2024-03-23T12:45:39;6.22;;;0.98;;
51836;SDS011;38941;53.254;6.600;2024-03-23T12:47:40;8.65;;;1.00;;
51836;SDS011;38941;53.254;6.600;2024-03-23T12:49:41;5.90;;;1.10;;
51836;SDS011;38941;53.254;6.600;2024-03-23T12:51:55;8.27;;;1.10;;
51836;SDS011;38941;53.254;6.600;2024-03-23T12:53:56;6.88;;;1.23;;
51836;SDS011;38941;53.254;6.600;2024-03-23T12:55:57;9.77;;;1.63;;
51836;SDS011;38941;53.254;6.600;2024-03-23T12:57:59;6.97;;;1.48;;
51836;SDS011;38941;53.254;6.600;2024-03-23T13:00:00;10.40;;;2.08;;
51836;SDS011;38941;53.254;6.600;2024-03-23T13:02:03;5.70;;;1.00;;
51836;SDS011;38941;53.254;6.600;2024-03-23T13:04:04;7.55;;;1.75;;
51836;SDS011;38941;53.254;6.600;2024-03-23T13:06:05;9.98;;;1.85;;
51836;SDS011;38941;53.254;6.600;2024-03-23T13:08:08;6.28;;;1.35;;
51836;SDS011;38941;53.254;6.600;2024-03-23T13:10:09;7.18;;;0.82;;
51836;SDS011;38941;53.254;6.600;2024-03-23T13:12:10;10.60;;;1.85;;